sensor_id;sensor_type;location;lat;lon;timestamp;pressure;altitude;pressure_sealevel;temperature;humidity
34658;BME280;20865;43.312;27.152;2023-02-12T00:01:18;101453.56;;;6.97;34.56
34658;BME280;20865;43.312;27.152;2023-02-12T00:03:46;101443.39;;;7.00;34.58
34658;BME280;20865;43.312;27.152;2023-02-12T00:06:14;101439.41;;;6.95;34.63
34658;BME280;20865;43.312;27.152;2023-02-12T00:08:42;101445.59;;;6.97;34.82
34658;BME280;20865;43.312;27.152;2023-02-12T00:11:15;101447.39;;;6.98;34.79
34658;BME280;20865;43.312;27.152;2023-02-12T00:13:43;101442.05;;;6.92;34.96
34658;BME280;20865;43.312;27.152;2023-02-12T00:16:15;101442.52;;;6.98;34.87
34658;BME280;20865;43.312;27.152;2023-02-12T00:18:42;101441.62;;;6.96;35.08
34658;BME280;20865;43.312;27.152;2023-02-12T00:21:10;101437.64;;;7.03;34.84
34658;BME280;20865;43.312;27.152;2023-02-12T00:23:39;101438.09;;;6.98;34.80
34658;BME280;20865;43.312;27.152;2023-02-12T00:26:09;101436.77;;;7.01;34.89
34658;BME280;20865;43.312;27.152;2023-02-12T00:28:37;101440.30;;;6.99;34.83
34658;BME280;20865;43.312;27.152;2023-02-12T00:31:12;101442.52;;;6.99;34.88
34658;BME280;20865;43.312;27.152;2023-02-12T00:33:35;101438.96;;;6.96;34.89
34658;BME280;20865;43.312;27.152;2023-02-12T00:36:03;101440.72;;;6.97;34.82
34658;BME280;20865;43.312;27.152;2023-02-12T00:38:31;101430.56;;;6.98;34.63
34658;BME280;20865;43.312;27.152;2023-02-12T00:40:58;101434.97;;;6.97;34.57
34658;BME280;20865;43.312;27.152;2023-02-12T00:43:26;101431.86;;;6.93;34.71
34658;BME280;20865;43.312;27.152;2023-02-12T00:45:54;101429.58;;;6.73;35.08
34658;BME280;20865;43.312;27.152;2023-02-12T00:48:22;101434.89;;;6.66;35.16
34658;BME280;20865;43.312;27.152;2023-02-12T00:50:50;101426.46;;;6.64;35.17
34658;BME280;20865;43.312;27.152;2023-02-12T00:53:17;101432.63;;;6.58;35.24
34658;BME280;20865;43.312;27.152;2023-02-12T00:55:45;101429.95;;;6.55;35.37
34658;BME280;20865;43.312;27.152;2023-02-12T00:58:13;101431.30;;;6.52;35.48
34658;BME280;20865;43.312;27.152;2023-02-12T01:00:42;101433.06;;;6.53;35.42
34658;BME280;20865;43.312;27.152;2023-02-12T01:03:10;101433.06;;;6.53;35.46
34658;BME280;20865;43.312;27.152;2023-02-12T01:05:38;101425.52;;;6.50;35.53
34658;BME280;20865;43.312;27.152;2023-02-12T01:08:05;101421.95;;;6.43;35.54
34658;BME280;20865;43.312;27.152;2023-02-12T01:10:33;101421.98;;;6.49;35.42
34658;BME280;20865;43.312;27.152;2023-02-12T01:13:00;101425.11;;;6.56;35.49
34658;BME280;20865;43.312;27.152;2023-02-12T01:15:28;101425.55;;;6.57;35.60
34658;BME280;20865;43.312;27.152;2023-02-12T01:17:56;101431.31;;;6.61;35.43
34658;BME280;20865;43.312;27.152;2023-02-12T01:20:24;101418.95;;;6.66;35.34
34658;BME280;20865;43.312;27.152;2023-02-12T01:22:52;101414.95;;;6.63;35.38
34658;BME280;20865;43.312;27.152;2023-02-12T01:25:19;101416.31;;;6.70;35.25
34658;BME280;20865;43.312;27.152;2023-02-12T01:27:47;101420.73;;;6.71;35.17
34658;BME280;20865;43.312;27.152;2023-02-12T01:30:15;101421.62;;;6.76;35.28
34658;BME280;20865;43.312;27.152;2023-02-12T01:32:43;101417.64;;;6.76;35.57
34658;BME280;20865;43.312;27.152;2023-02-12T01:35:10;101416.33;;;6.79;35.31
34658;BME280;20865;43.312;27.152;2023-02-12T01:37:38;101417.24;;;6.84;35.39
34658;BME280;20865;43.312;27.152;2023-02-12T01:40:07;101405.29;;;6.84;35.79
34658;BME280;20865;43.312;27.152;2023-02-12T01:42:35;101406.62;;;6.84;35.78
34658;BME280;20865;43.312;27.152;2023-02-12T01:47:44;101396.45;;;6.91;35.46
34658;BME280;20865;43.312;27.152;2023-02-12T01:50:18;101396.89;;;6.92;35.50
34658;BME280;20865;43.312;27.152;2023-02-12T01:52:47;101392.45;;;6.88;35.49
34658;BME280;20865;43.312;27.152;2023-02-12T01:55:15;101391.58;;;6.87;35.58
34658;BME280;20865;43.312;27.152;2023-02-12T01:57:45;101396.44;;;6.88;35.46
34658;BME280;20865;43.312;27.152;2023-02-12T02:00:17;101393.30;;;6.75;35.72
34658;BME280;20865;43.312;27.152;2023-02-12T02:02:46;101393.72;;;6.73;35.89
34658;BME280;20865;43.312;27.152;2023-02-12T02:05:17;101395.08;;;6.79;35.82
34658;BME280;20865;43.312;27.152;2023-02-12T02:07:44;101393.31;;;6.73;35.67
34658;BME280;20865;43.312;27.152;2023-02-12T02:10:13;101395.53;;;6.77;35.71
34658;BME280;20865;43.312;27.152;2023-02-12T02:12:41;101385.77;;;6.76;35.80
34658;BME280;20865;43.312;27.152;2023-02-12T02:15:28;101384.45;;;6.77;35.80
34658;BME280;20865;43.312;27.152;2023-02-12T02:18:05;101381.38;;;6.81;35.88
34658;BME280;20865;43.312;27.152;2023-02-12T02:26:39;101376.49;;;6.82;36.15
34658;BME280;20865;43.312;27.152;2023-02-12T02:31:32;101386.27;;;6.95;36.01
34658;BME280;20865;43.312;27.152;2023-02-12T02:34:08;101386.28;;;7.06;35.88
34658;BME280;20865;43.312;27.152;2023-02-12T02:36:43;101391.16;;;7.14;35.89
34658;BME280;20865;43.312;27.152;2023-02-12T02:42:06;101388.09;;;7.33;35.75
34658;BME280;20865;43.312;27.152;2023-02-12T02:44:38;101398.28;;;7.44;35.52
34658;BME280;20865;43.312;27.152;2023-02-12T02:47:08;101398.27;;;7.52;35.44
34658;BME280;20865;43.312;27.152;2023-02-12T02:49:49;101395.60;;;7.56;35.38
34658;BME280;20865;43.312;27.152;2023-02-12T02:52:27;101403.16;;;7.64;35.30
34658;BME280;20865;43.312;27.152;2023-02-12T02:54:52;101395.16;;;7.69;35.19
34658;BME280;20865;43.312;27.152;2023-02-12T02:57:29;101395.61;;;7.72;35.31
34658;BME280;20865;43.312;27.152;2023-02-12T03:00:00;101392.05;;;7.76;35.38
34658;BME280;20865;43.312;27.152;2023-02-12T03:02:34;101398.70;;;7.79;35.37
34658;BME280;20865;43.312;27.152;2023-02-12T03:05:05;101402.23;;;7.84;35.38
34658;BME280;20865;43.312;27.152;2023-02-12T03:07:40;101402.23;;;7.87;35.37
34658;BME280;20865;43.312;27.152;2023-02-12T03:10:05;101412.87;;;7.87;35.54
34658;BME280;20865;43.312;27.152;2023-02-12T03:12:40;101405.32;;;7.91;35.62
34658;BME280;20865;43.312;27.152;2023-02-12T03:15:17;101400.90;;;7.90;35.69
34658;BME280;20865;43.312;27.152;2023-02-12T03:17:45;101407.11;;;7.95;35.62
34658;BME280;20865;43.312;27.152;2023-02-12T03:20:19;101402.20;;;7.98;35.67
34658;BME280;20865;43.312;27.152;2023-02-12T03:22:50;101398.66;;;8.00;35.64
34658;BME280;20865;43.312;27.152;2023-02-12T03:25:21;101406.20;;;8.01;35.79
34658;BME280;20865;43.312;27.152;2023-02-12T03:30:36;101411.09;;;8.06;35.88
34658;BME280;20865;43.312;27.152;2023-02-12T03:33:04;101409.30;;;8.06;35.94
34658;BME280;20865;43.312;27.152;2023-02-12T03:35:49;101411.95;;;8.08;35.99
34658;BME280;20865;43.312;27.152;2023-02-12T03:38:19;101404.42;;;8.09;36.02
34658;BME280;20865;43.312;27.152;2023-02-12T03:40:55;101410.61;;;8.11;35.92
34658;BME280;20865;43.312;27.152;2023-02-12T03:46:03;101408.39;;;8.14;35.97
34658;BME280;20865;43.312;27.152;2023-02-12T03:51:32;101407.05;;;8.15;35.91
34658;BME280;20865;43.312;27.152;2023-02-12T03:54:00;101406.61;;;8.17;35.91
34658;BME280;20865;43.312;27.152;2023-02-12T03:56:53;101412.82;;;8.18;35.95
34658;BME280;20865;43.312;27.152;2023-02-12T03:59:12;101410.61;;;8.17;36.12
34658;BME280;20865;43.312;27.152;2023-02-12T04:01:40;101412.80;;;8.19;35.94
34658;BME280;20865;43.312;27.152;2023-02-12T04:04:09;101420.37;;;8.20;36.01
34658;BME280;20865;43.312;27.152;2023-02-12T04:06:36;101417.69;;;8.21;36.02
34658;BME280;20865;43.312;27.152;2023-02-12T04:09:06;101422.11;;;8.22;36.02
34658;BME280;20865;43.312;27.152;2023-02-12T04:11:53;101424.78;;;8.22;36.04
34658;BME280;20865;43.312;27.152;2023-02-12T04:14:27;101422.12;;;8.24;36.10
34658;BME280;20865;43.312;27.152;2023-02-12T04:19:53;101426.55;;;8.25;36.12
34658;BME280;20865;43.312;27.152;2023-02-12T04:22:40;101426.13;;;8.24;36.21
34658;BME280;20865;43.312;27.152;2023-02-12T04:30:46;101439.42;;;8.22;36.34
34658;BME280;20865;43.312;27.152;2023-02-12T04:33:12;101449.62;;;8.23;36.27
34658;BME280;20865;43.312;27.152;2023-02-12T04:35:49;101452.75;;;8.24;36.16
34658;BME280;20865;43.312;27.152;2023-02-12T04:38:21;101458.97;;;8.20;36.42
34658;BME280;20865;43.312;27.152;2023-02-12T04:40:51;101451.85;;;8.22;36.41
34658;BME280;20865;43.312;27.152;2023-02-12T04:43:30;101452.28;;;8.23;36.44
34658;BME280;20865;43.312;27.152;2023-02-12T04:45:57;101450.09;;;8.24;36.44
34658;BME280;20865;43.312;27.152;2023-02-12T04:48:25;101453.61;;;8.26;36.46
34658;BME280;20865;43.312;27.152;2023-02-12T04:50:53;101456.72;;;8.25;36.52
34658;BME280;20865;43.312;27.152;2023-02-12T04:53:20;101450.52;;;8.25;36.58
34658;BME280;20865;43.312;27.152;2023-02-12T04:55:48;101460.28;;;8.30;36.40
34658;BME280;20865;43.312;27.152;2023-02-12T04:58:16;101455.86;;;8.26;36.59
34658;BME280;20865;43.312;27.152;2023-02-12T05:00:44;101460.27;;;8.26;36.63
34658;BME280;20865;43.312;27.152;2023-02-12T05:03:11;101466.92;;;8.29;36.66
34658;BME280;20865;43.312;27.152;2023-02-12T05:05:39;101461.13;;;8.52;36.35
34658;BME280;20865;43.312;27.152;2023-02-12T05:08:07;101463.78;;;8.55;36.40
34658;BME280;20865;43.312;27.152;2023-02-12T05:10:35;101463.31;;;8.57;36.22
34658;BME280;20865;43.312;27.152;2023-02-12T05:13:02;101468.20;;;8.59;36.17
34658;BME280;20865;43.312;27.152;2023-02-12T05:15:30;101474.87;;;8.59;36.33
34658;BME280;20865;43.312;27.152;2023-02-12T05:17:57;101474.42;;;8.54;36.39
34658;BME280;20865;43.312;27.152;2023-02-12T05:20:25;101474.45;;;8.49;36.43
34658;BME280;20865;43.312;27.152;2023-02-12T05:22:53;101474.45;;;8.46;36.61
34658;BME280;20865;43.312;27.152;2023-02-12T05:25:21;101481.56;;;8.49;36.55
34658;BME280;20865;43.312;27.152;2023-02-12T05:27:48;101488.22;;;8.52;36.51
34658;BME280;20865;43.312;27.152;2023-02-12T05:30:16;101493.98;;;8.54;36.51
34658;BME280;20865;43.312;27.152;2023-02-12T05:32:44;101498.41;;;8.55;36.46
34658;BME280;20865;43.312;27.152;2023-02-12T05:35:11;101505.51;;;8.53;36.52
34658;BME280;20865;43.312;27.152;2023-02-12T05:37:39;101497.52;;;8.56;36.52
34658;BME280;20865;43.312;27.152;2023-02-12T05:40:07;101508.61;;;8.59;36.60
34658;BME280;20865;43.312;27.152;2023-02-12T05:42:35;101511.25;;;8.64;36.54
34658;BME280;20865;43.312;27.152;2023-02-12T05:45:03;101513.94;;;8.65;36.58
34658;BME280;20865;43.312;27.152;2023-02-12T05:47:31;101525.45;;;8.64;36.59
34658;BME280;20865;43.312;27.152;2023-02-12T05:49:58;101528.13;;;8.69;36.61
34658;BME280;20865;43.312;27.152;2023-02-12T05:52:26;101535.66;;;8.71;36.50
34658;BME280;20865;43.312;27.152;2023-02-12T05:54:54;101536.12;;;8.72;36.56
34658;BME280;20865;43.312;27.152;2023-02-12T05:57:21;101533.88;;;8.71;36.63
34658;BME280;20865;43.312;27.152;2023-02-12T05:59:51;101535.66;;;8.74;36.65
34658;BME280;20865;43.312;27.152;2023-02-12T06:02:18;101540.55;;;8.76;36.62
34658;BME280;20865;43.312;27.152;2023-02-12T06:04:46;101541.87;;;8.76;36.72
34658;BME280;20865;43.312;27.152;2023-02-12T06:07:13;101544.52;;;8.77;36.67
34658;BME280;20865;43.312;27.152;2023-02-12T06:09:41;101550.32;;;8.75;36.77
34658;BME280;20865;43.312;27.152;2023-02-12T06:12:08;101546.73;;;8.78;36.78
34658;BME280;20865;43.312;27.152;2023-02-12T06:14:36;101543.19;;;8.80;36.81
34658;BME280;20865;43.312;27.152;2023-02-12T06:17:04;101549.84;;;8.83;36.86
34658;BME280;20865;43.312;27.152;2023-02-12T06:19:31;101558.28;;;8.86;36.83
34658;BME280;20865;43.312;27.152;2023-02-12T06:21:59;101559.61;;;8.89;36.76
34658;BME280;20865;43.312;27.152;2023-02-12T06:24:26;101564.03;;;8.90;36.72
34658;BME280;20865;43.312;27.152;2023-02-12T06:26:54;101559.14;;;8.91;36.76
34658;BME280;20865;43.312;27.152;2023-02-12T06:29:21;101548.02;;;8.92;36.84
34658;BME280;20865;43.312;27.152;2023-02-12T06:31:49;101558.20;;;9.04;36.69
34658;BME280;20865;43.312;27.152;2023-02-12T06:34:17;101557.77;;;9.06;36.75
34658;BME280;20865;43.312;27.152;2023-02-12T06:36:46;101562.63;;;9.12;36.73
34658;BME280;20865;43.312;27.152;2023-02-12T06:39:15;101573.70;;;9.16;36.74
34658;BME280;20865;43.312;27.152;2023-02-12T06:41:43;101577.26;;;9.21;36.74
34658;BME280;20865;43.312;27.152;2023-02-12T06:44:12;101580.34;;;9.23;36.75
34658;BME280;20865;43.312;27.152;2023-02-12T06:46:39;101590.09;;;9.29;36.74
34658;BME280;20865;43.312;27.152;2023-02-12T06:49:09;101588.73;;;9.34;36.68
34658;BME280;20865;43.312;27.152;2023-02-12T06:51:36;101586.08;;;9.35;36.74
34658;BME280;20865;43.312;27.152;2023-02-12T06:54:14;101593.14;;;9.44;36.57
34658;BME280;20865;43.312;27.152;2023-02-12T06:56:42;101606.02;;;9.44;36.65
34658;BME280;20865;43.312;27.152;2023-02-12T06:59:12;101598.00;;;9.50;36.64
34658;BME280;20865;43.312;27.152;2023-02-12T07:01:42;101601.09;;;9.51;36.65
34658;BME280;20865;43.312;27.152;2023-02-12T07:04:10;101593.52;;;9.57;36.61
34658;BME280;20865;43.312;27.152;2023-02-12T07:06:38;101605.47;;;9.68;36.64
34658;BME280;20865;43.312;27.152;2023-02-12T07:09:05;101603.22;;;9.73;36.54
34658;BME280;20865;43.312;27.152;2023-02-12T07:11:35;101602.73;;;9.78;36.43
34658;BME280;20865;43.312;27.152;2023-02-12T07:14:02;101606.26;;;9.87;36.15
34658;BME280;20865;43.312;27.152;2023-02-12T07:16:30;101599.95;;;9.95;36.11
34658;BME280;20865;43.312;27.152;2023-02-12T07:18:58;101606.17;;;9.96;36.06
34658;BME280;20865;43.312;27.152;2023-02-12T07:21:25;101609.31;;;9.92;36.02
34658;BME280;20865;43.312;27.152;2023-02-12T07:23:53;101604.37;;;9.99;35.94
34658;BME280;20865;43.312;27.152;2023-02-12T07:26:21;101610.58;;;10.05;35.85
34658;BME280;20865;43.312;27.152;2023-02-12T07:28:50;101610.06;;;10.13;35.64
34658;BME280;20865;43.312;27.152;2023-02-12T07:31:22;101602.50;;;10.12;35.72
34658;BME280;20865;43.312;27.152;2023-02-12T07:33:55;101608.34;;;10.06;35.83
34658;BME280;20865;43.312;27.152;2023-02-12T07:36:26;101605.66;;;10.06;35.91
34658;BME280;20865;43.312;27.152;2023-02-12T07:38:54;101607.87;;;10.09;35.99
34658;BME280;20865;43.312;27.152;2023-02-12T07:41:24;101602.52;;;10.09;35.86
34658;BME280;20865;43.312;27.152;2023-02-12T07:43:58;101604.72;;;10.13;35.87
34658;BME280;20865;43.312;27.152;2023-02-12T07:46:30;101608.70;;;10.14;35.89
34658;BME280;20865;43.312;27.152;2023-02-12T07:49:00;101611.36;;;10.19;35.90
34658;BME280;20865;43.312;27.152;2023-02-12T07:51:29;101624.69;;;10.20;35.66
34658;BME280;20865;43.312;27.152;2023-02-12T07:53:58;101619.79;;;10.26;35.43
34658;BME280;20865;43.312;27.152;2023-02-12T07:56:29;101634.48;;;10.26;35.57
34658;BME280;20865;43.312;27.152;2023-02-12T07:58:59;101630.91;;;10.27;35.47
34658;BME280;20865;43.312;27.152;2023-02-12T08:01:31;101630.84;;;10.35;35.21
34658;BME280;20865;43.312;27.152;2023-02-12T08:04:00;101633.94;;;10.37;35.22
34658;BME280;20865;43.312;27.152;2023-02-12T08:06:30;101635.23;;;10.42;35.20
34658;BME280;20865;43.312;27.152;2023-02-12T08:09:00;101633.49;;;10.39;35.13
34658;BME280;20865;43.312;27.152;2023-02-12T08:11:28;101636.50;;;10.51;34.71
34658;BME280;20865;43.312;27.152;2023-02-12T08:13:57;101638.27;;;10.54;34.82
34658;BME280;20865;43.312;27.152;2023-02-12T08:16:26;101640.44;;;10.60;34.75
34658;BME280;20865;43.312;27.152;2023-02-12T08:18:56;101641.30;;;10.64;34.65
34658;BME280;20865;43.312;27.152;2023-02-12T08:21:25;101640.79;;;10.70;34.55
34658;BME280;20865;43.312;27.152;2023-02-12T08:23:55;101641.22;;;10.71;34.72
34658;BME280;20865;43.312;27.152;2023-02-12T08:31:32;101648.70;;;10.80;34.25
34658;BME280;20865;43.312;27.152;2023-02-12T08:34:01;101652.62;;;10.87;34.40
34658;BME280;20865;43.312;27.152;2023-02-12T08:36:34;101655.67;;;10.94;34.45
34658;BME280;20865;43.312;27.152;2023-02-12T08:38:59;101660.23;;;10.88;34.40
34658;BME280;20865;43.312;27.152;2023-02-12T08:41:28;101668.14;;;10.97;34.26
34658;BME280;20865;43.312;27.152;2023-02-12T08:43:58;101660.91;;;11.05;34.09
34658;BME280;20865;43.312;27.152;2023-02-12T08:46:31;101670.30;;;11.04;34.12
34658;BME280;20865;43.312;27.152;2023-02-12T08:49:08;101652.89;;;11.07;34.15
34658;BME280;20865;43.312;27.152;2023-02-12T08:51:39;101655.96;;;11.11;34.24
34658;BME280;20865;43.312;27.152;2023-02-12T08:54:10;101661.67;;;11.19;34.01
34658;BME280;20865;43.312;27.152;2023-02-12T08:56:38;101680.34;;;11.23;33.68
34658;BME280;20865;43.312;27.152;2023-02-12T08:59:07;101678.55;;;11.25;33.75
34658;BME280;20865;43.312;27.152;2023-02-12T09:01:38;101669.33;;;11.11;33.95
34658;BME280;20865;43.312;27.152;2023-02-12T09:04:13;101670.09;;;11.22;33.94
34658;BME280;20865;43.312;27.152;2023-02-12T09:06:37;101685.66;;;11.27;33.79
34658;BME280;20865;43.312;27.152;2023-02-12T09:09:05;101676.72;;;11.28;33.74
34658;BME280;20865;43.312;27.152;2023-02-12T09:11:34;101678.06;;;11.28;33.94
34658;BME280;20865;43.312;27.152;2023-02-12T09:14:09;101683.34;;;11.33;33.83
34658;BME280;20865;43.312;27.152;2023-02-12T09:16:36;101682.86;;;11.36;33.78
34658;BME280;20865;43.312;27.152;2023-02-12T09:19:06;101691.86;;;11.31;33.95
34658;BME280;20865;43.312;27.152;2023-02-12T09:21:34;101687.33;;;11.36;33.59
34658;BME280;20865;43.312;27.152;2023-02-12T09:24:02;101685.57;;;11.35;33.57
34658;BME280;20865;43.312;27.152;2023-02-12T09:26:30;101691.73;;;11.40;33.58
34658;BME280;20865;43.312;27.152;2023-02-12T09:28:58;101694.87;;;11.41;33.57
34658;BME280;20865;43.312;27.152;2023-02-12T09:31:29;101698.83;;;11.47;33.98
34658;BME280;20865;43.312;27.152;2023-02-12T09:34:02;101696.58;;;11.48;33.67
34658;BME280;20865;43.312;27.152;2023-02-12T09:36:31;101703.75;;;11.44;33.78
34658;BME280;20865;43.312;27.152;2023-02-12T09:38:59;101703.33;;;11.42;33.74
34658;BME280;20865;43.312;27.152;2023-02-12T09:44:20;101708.28;;;11.38;33.63
34658;BME280;20865;43.312;27.152;2023-02-12T09:47:20;101714.61;;;11.29;33.64
34658;BME280;20865;43.312;27.152;2023-02-12T09:52:37;101710.31;;;11.16;33.70
34658;BME280;20865;43.312;27.152;2023-02-12T09:55:05;101708.14;;;11.08;33.89
34658;BME280;20865;43.312;27.152;2023-02-12T09:57:36;101710.47;;;10.97;33.91
34658;BME280;20865;43.312;27.152;2023-02-12T10:02:40;101704.24;;;10.99;34.15
34658;BME280;20865;43.312;27.152;2023-02-12T10:05:21;101701.97;;;11.01;34.23
34658;BME280;20865;43.312;27.152;2023-02-12T10:11:00;101707.87;;;10.91;34.17
34658;BME280;20865;43.312;27.152;2023-02-12T10:13:53;101715.44;;;10.92;34.26
34658;BME280;20865;43.312;27.152;2023-02-12T10:19:26;101714.16;;;10.86;34.43
34658;BME280;20865;43.312;27.152;2023-02-12T10:24:43;101710.11;;;10.87;34.30
34658;BME280;20865;43.312;27.152;2023-02-12T10:27:14;101709.62;;;10.95;34.22
34658;BME280;20865;43.312;27.152;2023-02-12T10:29:44;101713.14;;;10.97;34.21
34658;BME280;20865;43.312;27.152;2023-02-12T10:34:46;101710.42;;;11.04;34.04
34658;BME280;20865;43.312;27.152;2023-02-12T10:40:34;101710.22;;;11.22;33.99
34658;BME280;20865;43.312;27.152;2023-02-12T10:42:41;101715.61;;;11.20;34.09
34658;BME280;20865;43.312;27.152;2023-02-12T10:45:18;101713.63;;;11.36;33.93
34658;BME280;20865;43.312;27.152;2023-02-12T10:47:48;101718.95;;;11.39;33.92
34658;BME280;20865;43.312;27.152;2023-02-12T10:53:03;101721.58;;;11.47;33.99
34658;BME280;20865;43.312;27.152;2023-02-12T10:55:35;101730.45;;;11.51;33.90
34658;BME280;20865;43.312;27.152;2023-02-12T10:58:04;101736.66;;;11.54;33.98
34658;BME280;20865;43.312;27.152;2023-02-12T11:00:35;101733.03;;;11.57;34.06
34658;BME280;20865;43.312;27.152;2023-02-12T11:05:42;101730.81;;;11.58;33.91
34658;BME280;20865;43.312;27.152;2023-02-12T11:08:31;101742.80;;;11.61;33.97
34658;BME280;20865;43.312;27.152;2023-02-12T11:13:44;101740.61;;;11.59;33.93
34658;BME280;20865;43.312;27.152;2023-02-12T11:16:14;101741.55;;;11.55;34.01
34658;BME280;20865;43.312;27.152;2023-02-12T11:18:43;101748.24;;;11.53;34.04
34658;BME280;20865;43.312;27.152;2023-02-12T11:21:12;101750.01;;;11.56;34.08
34658;BME280;20865;43.312;27.152;2023-02-12T11:23:41;101747.66;;;11.66;34.03
34658;BME280;20865;43.312;27.152;2023-02-12T11:26:25;101746.42;;;11.58;33.85
34658;BME280;20865;43.312;27.152;2023-02-12T11:31:28;101746.73;;;11.26;33.98
34658;BME280;20865;43.312;27.152;2023-02-12T11:34:15;101745.59;;;11.52;33.07
34658;BME280;20865;43.312;27.152;2023-02-12T11:36:52;101739.63;;;11.64;33.13
34658;BME280;20865;43.312;27.152;2023-02-12T11:39:21;101750.27;;;11.72;33.16
34658;BME280;20865;43.312;27.152;2023-02-12T11:41:55;101749.75;;;11.79;33.03
34658;BME280;20865;43.312;27.152;2023-02-12T11:47:20;101740.09;;;11.64;32.65
34658;BME280;20865;43.312;27.152;2023-02-12T11:49:52;101741.39;;;11.67;32.43
34658;BME280;20865;43.312;27.152;2023-02-12T11:52:28;101742.80;;;11.62;32.55
34658;BME280;20865;43.312;27.152;2023-02-12T11:54:58;101740.48;;;11.69;32.45
34658;BME280;20865;43.312;27.152;2023-02-12T11:57:44;101736.89;;;11.72;32.51
34658;BME280;20865;43.312;27.152;2023-02-12T12:00:24;101729.60;;;11.86;32.52
34658;BME280;20865;43.312;27.152;2023-02-12T12:03:09;101738.94;;;11.89;32.47
34658;BME280;20865;43.312;27.152;2023-02-12T12:05:37;101747.71;;;12.01;32.40
34658;BME280;20865;43.312;27.152;2023-02-12T12:08:23;101750.81;;;12.02;32.36
34658;BME280;20865;43.312;27.152;2023-02-12T12:16:41;101762.45;;;11.61;33.00
34658;BME280;20865;43.312;27.152;2023-02-12T12:19:40;101759.16;;;11.76;33.07
34658;BME280;20865;43.312;27.152;2023-02-12T12:22:41;101765.30;;;11.87;32.19
34658;BME280;20865;43.312;27.152;2023-02-12T12:25:12;101765.27;;;11.88;31.94
34658;BME280;20865;43.312;27.152;2023-02-12T12:27:41;101766.11;;;11.94;32.09
34658;BME280;20865;43.312;27.152;2023-02-12T12:39:14;101760.43;;;11.80;31.28
34658;BME280;20865;43.312;27.152;2023-02-12T12:50:24;101766.70;;;11.79;31.77
34658;BME280;20865;43.312;27.152;2023-02-12T12:53:18;101776.46;;;11.86;31.86
34658;BME280;20865;43.312;27.152;2023-02-12T12:56:01;101775.13;;;11.85;32.16
34658;BME280;20865;43.312;27.152;2023-02-12T13:01:43;101789.19;;;11.63;33.03
34658;BME280;20865;43.312;27.152;2023-02-12T13:09:45;101802.55;;;11.66;33.21
34658;BME280;20865;43.312;27.152;2023-02-12T13:12:35;101807.02;;;11.64;33.29
34658;BME280;20865;43.312;27.152;2023-02-12T13:18:11;101820.28;;;11.76;33.75
34658;BME280;20865;43.312;27.152;2023-02-12T13:23:18;101830.02;;;11.82;34.05
34658;BME280;20865;43.312;27.152;2023-02-12T13:28:37;101842.08;;;11.86;35.19
34658;BME280;20865;43.312;27.152;2023-02-12T13:30:47;101844.38;;;11.76;35.79
34658;BME280;20865;43.312;27.152;2023-02-12T13:33:19;101853.70;;;11.82;36.10
34658;BME280;20865;43.312;27.152;2023-02-12T13:35:55;101862.12;;;11.89;36.17
34658;BME280;20865;43.312;27.152;2023-02-12T13:38:24;101868.86;;;11.85;36.48
34658;BME280;20865;43.312;27.152;2023-02-12T13:40:51;101870.89;;;11.58;37.33
34658;BME280;20865;43.312;27.152;2023-02-12T13:45:55;101877.80;;;11.82;37.17
34658;BME280;20865;43.312;27.152;2023-02-12T13:48:39;101877.95;;;11.64;37.76
34658;BME280;20865;43.312;27.152;2023-02-12T13:54:22;101887.28;;;11.72;37.68
34658;BME280;20865;43.312;27.152;2023-02-12T13:56:52;101894.87;;;11.69;37.89
34658;BME280;20865;43.312;27.152;2023-02-12T14:02:03;101896.23;;;11.64;37.99
34658;BME280;20865;43.312;27.152;2023-02-12T14:04:37;101902.91;;;11.69;37.92
34658;BME280;20865;43.312;27.152;2023-02-12T14:07:10;101905.11;;;11.73;37.76
34658;BME280;20865;43.312;27.152;2023-02-12T14:09:43;101898.41;;;11.73;37.65
34658;BME280;20865;43.312;27.152;2023-02-12T14:12:17;101901.09;;;11.73;37.66
34658;BME280;20865;43.312;27.152;2023-02-12T14:14:48;101907.38;;;11.67;37.74
34658;BME280;20865;43.312;27.152;2023-02-12T14:20:31;101908.27;;;11.69;37.75
34658;BME280;20865;43.312;27.152;2023-02-12T14:23:03;101910.20;;;11.50;38.29
34658;BME280;20865;43.312;27.152;2023-02-12T14:28:16;101923.02;;;11.66;38.03
34658;BME280;20865;43.312;27.152;2023-02-12T14:30:40;101923.95;;;11.62;38.19
34658;BME280;20865;43.312;27.152;2023-02-12T14:33:17;101932.41;;;11.63;38.09
34658;BME280;20865;43.312;27.152;2023-02-12T14:35:43;101936.90;;;11.59;38.15
34658;BME280;20865;43.312;27.152;2023-02-12T14:40:46;101943.72;;;11.42;38.54
34658;BME280;20865;43.312;27.152;2023-02-12T14:43:28;101945.95;;;11.44;38.42
34658;BME280;20865;43.312;27.152;2023-02-12T14:48:54;101955.73;;;11.49;38.23
34658;BME280;20865;43.312;27.152;2023-02-12T14:51:35;101958.42;;;11.45;38.26
34658;BME280;20865;43.312;27.152;2023-02-12T14:54:12;101954.86;;;11.43;38.37
34658;BME280;20865;43.312;27.152;2023-02-12T14:56:40;101954.43;;;11.42;38.36
34658;BME280;20865;43.312;27.152;2023-02-12T14:59:08;101965.16;;;11.41;38.33
34658;BME280;20865;43.312;27.152;2023-02-12T15:01:36;101970.06;;;11.41;38.20
34658;BME280;20865;43.312;27.152;2023-02-12T15:04:15;101968.75;;;11.35;38.28
34658;BME280;20865;43.312;27.152;2023-02-12T15:06:40;101973.66;;;11.33;38.38
34658;BME280;20865;43.312;27.152;2023-02-12T15:09:14;101980.38;;;11.31;38.36
34658;BME280;20865;43.312;27.152;2023-02-12T15:12:25;101983.08;;;11.28;38.42
34658;BME280;20865;43.312;27.152;2023-02-12T15:14:23;101985.75;;;11.28;38.36
34658;BME280;20865;43.312;27.152;2023-02-12T15:19:36;101993.39;;;11.18;38.18